createdAt,value
2018-03-20T00:01:18.294Z,93.65
2018-03-20T00:03:44.031Z,93.63
2018-03-20T00:06:09.755Z,94.04
2018-03-20T00:08:35.491Z,93.07
2018-03-20T00:11:01.226Z,94.02
2018-03-20T00:13:26.934Z,93.94
2018-03-20T00:15:52.658Z,93.60
2018-03-20T00:18:18.374Z,93.70
2018-03-20T00:20:44.110Z,93.75
2018-03-20T00:23:09.840Z,93.45
2018-03-20T00:25:35.574Z,93.48
2018-03-20T00:28:01.303Z,93.64
2018-03-20T00:30:27.036Z,93.49
2018-03-20T00:32:52.774Z,93.63
2018-03-20T00:35:18.499Z,93.75
2018-03-20T00:37:44.238Z,93.58
2018-03-20T00:40:09.974Z,93.62
2018-03-20T00:42:35.702Z,92.80
2018-03-20T00:45:01.451Z,93.62
2018-03-20T00:47:27.189Z,93.60
2018-03-20T00:49:52.919Z,93.39
2018-03-20T00:52:18.658Z,93.56
2018-03-20T00:54:44.392Z,93.69
2018-03-20T00:57:10.142Z,93.64
2018-03-20T00:59:35.858Z,93.60
2018-03-20T01:02:01.601Z,93.24
2018-03-20T01:04:27.330Z,93.32
2018-03-20T01:06:53.067Z,93.14
2018-03-20T01:09:18.794Z,93.05
2018-03-20T01:11:44.530Z,92.97
2018-03-20T01:14:10.262Z,92.85
2018-03-20T01:16:36.017Z,92.71
2018-03-20T01:19:01.751Z,92.57
2018-03-20T01:21:27.502Z,92.68
2018-03-20T01:23:53.242Z,92.50
2018-03-20T01:26:18.967Z,92.46
2018-03-20T01:28:44.698Z,92.13
2018-03-20T01:31:10.432Z,92.02
2018-03-20T01:33:36.182Z,91.97
2018-03-20T01:36:01.910Z,91.79
2018-03-20T01:38:27.642Z,91.76
2018-03-20T01:40:53.374Z,91.66
2018-03-20T01:43:19.115Z,91.48
2018-03-20T01:45:44.841Z,91.39
2018-03-20T01:48:10.587Z,91.31
2018-03-20T01:50:36.319Z,91.25
2018-03-20T01:53:14.543Z,91.05
2018-03-20T01:55:40.254Z,90.94
2018-03-20T01:58:05.992Z,90.91
2018-03-20T02:00:31.714Z,90.55
2018-03-20T02:02:57.450Z,90.48
2018-03-20T02:05:23.170Z,90.24
2018-03-20T02:07:48.903Z,90.11
2018-03-20T02:10:14.643Z,89.96
2018-03-20T02:12:40.383Z,89.71
2018-03-20T02:15:06.115Z,89.46
2018-03-20T02:17:31.849Z,89.06
2018-03-20T02:19:57.594Z,89.06
2018-03-20T02:22:23.324Z,88.47
2018-03-20T02:24:49.060Z,88.42
2018-03-20T02:27:14.794Z,88.42
2018-03-20T02:29:40.530Z,88.26
2018-03-20T02:32:06.254Z,88.78
2018-03-20T02:34:31.990Z,90.04
2018-03-20T02:36:57.731Z,91.50
2018-03-20T02:39:23.465Z,93.14
2018-03-20T02:41:49.183Z,93.82
2018-03-20T02:44:14.928Z,94.18
2018-03-20T02:46:40.707Z,93.96
2018-03-20T02:49:06.441Z,92.62
2018-03-20T02:51:32.173Z,91.92
2018-03-20T02:53:57.904Z,91.86
2018-03-20T02:56:23.647Z,90.91
2018-03-20T02:58:49.366Z,90.64
2018-03-20T03:01:15.108Z,90.64
2018-03-20T03:03:40.856Z,90.41
2018-03-20T03:06:06.603Z,89.58
2018-03-20T03:08:32.339Z,89.17
2018-03-20T03:10:58.084Z,88.72
2018-03-20T03:13:23.843Z,88.76
2018-03-20T03:15:49.586Z,88.34
2018-03-20T03:18:15.333Z,88.20
2018-03-20T03:20:41.072Z,87.91
2018-03-20T03:23:06.806Z,87.50
2018-03-20T03:25:32.546Z,86.71
2018-03-20T03:27:58.263Z,86.67
2018-03-20T03:30:23.985Z,86.50
2018-03-20T03:32:49.715Z,85.98
2018-03-20T03:35:15.458Z,85.35
2018-03-20T03:37:41.174Z,85.83
2018-03-20T03:40:06.914Z,85.71
2018-03-20T03:42:32.630Z,85.79
2018-03-20T03:44:58.350Z,85.91
2018-03-20T03:47:24.102Z,86.16
2018-03-20T03:49:49.821Z,86.47
2018-03-20T03:52:15.561Z,85.99
2018-03-20T03:54:41.295Z,85.96
2018-03-20T03:57:07.029Z,86.07
2018-03-20T03:59:32.754Z,85.91
2018-03-20T04:01:58.490Z,85.98
2018-03-20T04:04:24.219Z,86.12
2018-03-20T04:06:49.955Z,86.31
2018-03-20T04:09:15.671Z,86.18
2018-03-20T04:11:41.405Z,86.03
2018-03-20T04:14:07.122Z,86.35
2018-03-20T04:16:32.857Z,86.00
2018-03-20T04:18:58.581Z,86.14
2018-03-20T04:21:24.326Z,86.03
2018-03-20T04:23:50.066Z,86.47
2018-03-20T04:26:15.810Z,86.63
2018-03-20T04:28:41.538Z,86.65
2018-03-20T04:31:07.262Z,86.47
2018-03-20T04:33:32.986Z,86.79
2018-03-20T04:35:58.710Z,86.89
2018-03-20T04:38:24.445Z,86.70
2018-03-20T04:40:50.169Z,86.91
2018-03-20T04:43:15.907Z,87.04
2018-03-20T04:45:41.626Z,87.08
2018-03-20T04:48:07.366Z,87.46
2018-03-20T04:50:33.085Z,87.21
2018-03-20T04:52:58.815Z,87.22
2018-03-20T04:55:24.538Z,87.03
2018-03-20T04:57:50.262Z,87.06
2018-03-20T05:00:16.008Z,86.35
2018-03-20T05:02:41.743Z,86.96
2018-03-20T05:05:07.463Z,86.93
2018-03-20T05:07:33.210Z,86.85
2018-03-20T05:09:58.934Z,86.24
2018-03-20T05:12:24.664Z,85.73
2018-03-20T05:14:50.403Z,86.00
2018-03-20T05:17:16.162Z,86.07
2018-03-20T05:19:48.032Z,85.70
2018-03-20T05:25:12.317Z,85.50
2018-03-20T05:27:38.042Z,85.78
2018-03-20T05:30:03.774Z,85.63
2018-03-20T05:32:29.508Z,85.69
2018-03-20T05:34:55.242Z,86.02
2018-03-20T05:37:20.965Z,86.03
2018-03-20T05:39:46.694Z,86.17
2018-03-20T05:42:12.414Z,85.83
2018-03-20T05:44:38.171Z,86.21
2018-03-20T05:50:14.794Z,85.94
2018-03-20T05:52:40.509Z,86.03
2018-03-20T05:55:06.254Z,86.26
2018-03-20T05:57:31.961Z,86.37
2018-03-20T05:59:57.694Z,86.36
2018-03-20T06:02:23.409Z,86.42
2018-03-20T06:04:49.135Z,86.09
2018-03-20T06:07:14.850Z,85.36
2018-03-20T06:09:40.573Z,85.20
2018-03-20T06:12:06.285Z,85.06
2018-03-20T06:14:32.015Z,84.71
2018-03-20T06:16:57.745Z,84.46
2018-03-20T06:19:23.466Z,83.62
2018-03-20T06:21:49.183Z,83.42
2018-03-20T06:24:14.901Z,82.74
2018-03-20T06:26:40.622Z,82.70
2018-03-20T06:29:06.338Z,81.89
2018-03-20T06:31:32.059Z,81.90
2018-03-20T06:33:57.766Z,81.75
2018-03-20T06:36:23.481Z,81.17
2018-03-20T06:38:49.231Z,80.66
2018-03-20T06:41:14.918Z,80.35
2018-03-20T06:43:40.638Z,79.92
2018-03-20T06:46:06.358Z,79.37
2018-03-20T06:48:32.099Z,78.83
2018-03-20T06:50:57.866Z,78.57
2018-03-20T06:53:23.562Z,78.51
2018-03-20T06:55:49.302Z,77.70
2018-03-20T06:58:15.026Z,77.74
2018-03-20T07:00:40.753Z,76.20
2018-03-20T07:03:06.478Z,75.98
2018-03-20T07:05:32.211Z,75.70
2018-03-20T07:07:57.959Z,74.87
2018-03-20T07:10:23.698Z,74.79
2018-03-20T07:12:49.430Z,74.95
2018-03-20T07:15:15.162Z,74.88
2018-03-20T07:17:40.905Z,74.74
2018-03-20T07:20:06.646Z,74.11
2018-03-20T07:22:32.388Z,73.68
2018-03-20T07:24:58.102Z,73.37
2018-03-20T07:27:23.842Z,72.53
2018-03-20T07:29:49.569Z,72.34
2018-03-20T07:32:15.309Z,71.78
2018-03-20T07:34:41.040Z,71.61
2018-03-20T07:37:06.777Z,70.81
2018-03-20T07:39:32.498Z,70.54
2018-03-20T07:41:58.231Z,70.45
2018-03-20T07:44:23.949Z,70.57
2018-03-20T07:46:49.678Z,70.02
2018-03-20T07:49:15.704Z,69.82
2018-03-20T07:51:41.442Z,69.85
2018-03-20T07:54:07.152Z,69.18
2018-03-20T07:56:32.857Z,68.93
2018-03-20T07:58:58.574Z,68.49
2018-03-20T08:01:24.293Z,68.42
2018-03-20T08:03:50.262Z,67.77
2018-03-20T08:06:15.994Z,66.95
2018-03-20T08:08:41.710Z,66.73
2018-03-20T08:11:07.430Z,66.46
2018-03-20T08:13:33.186Z,66.33
2018-03-20T08:15:58.905Z,66.85
2018-03-20T08:18:25.947Z,66.27
2018-03-20T08:20:51.676Z,65.31
2018-03-20T08:23:17.828Z,65.12
2018-03-20T08:25:43.577Z,65.49
2018-03-20T08:28:09.298Z,64.85
2018-03-20T08:30:35.017Z,64.50
2018-03-20T08:33:00.729Z,63.93
2018-03-20T08:35:26.446Z,63.68
2018-03-20T08:37:52.162Z,64.22
2018-03-20T08:40:17.869Z,64.23
2018-03-20T08:42:43.586Z,63.67
2018-03-20T08:45:09.301Z,63.44
2018-03-20T08:47:35.029Z,62.92
2018-03-20T08:50:00.816Z,62.59
2018-03-20T08:52:26.506Z,61.99
2018-03-20T08:54:52.234Z,62.46
2018-03-20T08:57:17.950Z,62.69
2018-03-20T08:59:43.698Z,63.20
2018-03-20T09:02:09.426Z,62.67
2018-03-20T09:04:35.152Z,61.03
2018-03-20T09:07:00.875Z,61.45
2018-03-20T09:09:26.606Z,61.26
2018-03-20T09:11:52.330Z,61.96
2018-03-20T09:14:18.075Z,61.90
2018-03-20T09:16:43.827Z,61.40
2018-03-20T09:19:09.569Z,60.68
2018-03-20T09:21:35.303Z,60.14
2018-03-20T09:24:01.045Z,60.32
2018-03-20T09:26:26.786Z,60.48
2018-03-20T09:28:52.521Z,59.88
2018-03-20T09:31:18.242Z,58.17
2018-03-20T09:33:43.966Z,58.29
2018-03-20T09:36:09.697Z,58.23
2018-03-20T09:38:35.438Z,58.41
2018-03-20T09:41:01.213Z,57.76
2018-03-20T09:43:26.930Z,57.70
2018-03-20T09:45:52.633Z,57.00
2018-03-20T09:48:18.369Z,57.49
2018-03-20T09:50:44.105Z,58.02
2018-03-20T09:53:09.812Z,57.46
2018-03-20T09:55:35.523Z,57.01
2018-03-20T09:58:01.242Z,58.47
2018-03-20T10:00:26.977Z,58.43
2018-03-20T10:02:52.694Z,57.95
2018-03-20T10:05:18.414Z,58.46
2018-03-20T10:07:44.122Z,58.65
2018-03-20T10:10:09.845Z,57.54
2018-03-20T10:12:35.565Z,57.58
2018-03-20T10:15:01.299Z,57.42
2018-03-20T10:17:27.009Z,56.87
2018-03-20T10:19:52.730Z,56.04
2018-03-20T10:22:18.455Z,55.18
2018-03-20T10:24:44.178Z,57.14
2018-03-20T10:27:09.896Z,56.67
2018-03-20T10:29:35.616Z,55.43
2018-03-20T10:32:01.352Z,56.20
2018-03-20T10:34:27.070Z,55.26
2018-03-20T10:36:52.793Z,55.28
2018-03-20T10:39:18.978Z,55.11
2018-03-20T10:41:45.603Z,54.43
2018-03-20T10:44:11.852Z,52.11
2018-03-20T10:46:38.059Z,52.85
2018-03-20T10:49:03.975Z,52.46
2018-03-20T10:51:29.675Z,53.50
2018-03-20T10:53:55.409Z,53.42
2018-03-20T10:56:21.143Z,52.89
2018-03-20T10:58:46.869Z,51.98
2018-03-20T11:01:18.698Z,52.26
2018-03-20T11:03:44.443Z,52.67
2018-03-20T11:06:10.178Z,52.06
2018-03-20T11:08:35.914Z,49.84
2018-03-20T11:11:01.650Z,49.13
2018-03-20T11:13:27.391Z,47.34
2018-03-20T11:15:53.125Z,48.45
2018-03-20T11:18:18.866Z,48.91
2018-03-20T11:20:44.603Z,47.31
2018-03-20T11:23:10.334Z,48.02
2018-03-20T11:25:36.058Z,47.36
2018-03-20T11:28:01.802Z,49.64
2018-03-20T11:30:27.521Z,45.88
2018-03-20T11:32:53.246Z,48.62
2018-03-20T11:35:18.978Z,49.68
2018-03-20T11:37:44.711Z,48.17
2018-03-20T11:40:10.429Z,47.99
2018-03-20T11:42:36.153Z,48.26
2018-03-20T11:45:01.874Z,47.47
2018-03-20T11:47:27.661Z,47.35
2018-03-20T11:49:53.342Z,47.31
2018-03-20T11:52:19.078Z,45.61
2018-03-20T11:54:44.790Z,45.37
2018-03-20T11:57:10.524Z,46.01
2018-03-20T11:59:36.242Z,46.11
2018-03-20T12:02:01.990Z,45.80
2018-03-20T12:04:27.710Z,45.26
2018-03-20T12:06:53.429Z,44.96
2018-03-20T12:09:31.606Z,43.73
2018-03-20T12:11:57.338Z,42.93
2018-03-20T12:14:23.071Z,42.17
2018-03-20T12:16:48.810Z,43.16
2018-03-20T12:19:14.538Z,42.81
2018-03-20T12:21:40.265Z,42.99
2018-03-20T12:24:05.990Z,43.22
2018-03-20T12:26:31.725Z,42.28
2018-03-20T12:28:57.449Z,41.85
2018-03-20T12:31:23.169Z,43.22
2018-03-20T12:33:48.902Z,42.30
2018-03-20T12:36:14.629Z,41.35
2018-03-20T12:38:40.374Z,43.33
2018-03-20T12:41:06.102Z,44.28
2018-03-20T12:43:31.843Z,45.17
2018-03-20T12:45:57.574Z,44.91
2018-03-20T12:48:23.310Z,44.85
2018-03-20T12:50:49.018Z,46.56
2018-03-20T12:53:14.742Z,44.90
2018-03-20T12:55:40.453Z,43.83
2018-03-20T12:58:06.189Z,45.25
2018-03-20T13:00:31.902Z,44.59
2018-03-20T13:02:57.617Z,45.38
2018-03-20T13:05:23.333Z,45.17
2018-03-20T13:07:49.105Z,44.75
2018-03-20T13:10:14.829Z,44.70
2018-03-20T13:12:40.546Z,43.77
2018-03-20T13:15:06.263Z,44.65
2018-03-20T13:17:31.976Z,44.42
2018-03-20T13:19:57.703Z,43.33
2018-03-20T13:22:23.418Z,42.86
2018-03-20T13:24:49.143Z,44.07
2018-03-20T13:27:14.861Z,42.67
2018-03-20T13:29:40.581Z,43.50
2018-03-20T13:32:06.298Z,44.37
2018-03-20T13:34:32.035Z,44.06
2018-03-20T13:36:57.761Z,45.54
2018-03-20T13:39:23.477Z,44.94
2018-03-20T13:41:49.197Z,44.58
2018-03-20T13:44:14.913Z,44.02
2018-03-20T13:46:40.633Z,44.68
2018-03-20T13:49:06.377Z,45.33
2018-03-20T13:51:32.094Z,44.98
2018-03-20T13:53:57.810Z,45.77
2018-03-20T13:56:23.533Z,45.77
2018-03-20T13:58:49.242Z,45.55
2018-03-20T14:01:16.726Z,45.58
2018-03-20T14:03:42.498Z,45.81
2018-03-20T14:06:08.248Z,45.47
2018-03-20T14:08:34.006Z,45.43
2018-03-20T14:10:59.725Z,45.59
2018-03-20T14:13:25.437Z,46.08
2018-03-20T14:15:51.224Z,46.16
2018-03-20T14:18:16.946Z,46.35
2018-03-20T14:20:42.695Z,46.33
2018-03-20T14:23:08.388Z,46.31
2018-03-20T14:25:34.098Z,46.84
2018-03-20T14:27:59.829Z,46.85
2018-03-20T14:30:25.546Z,47.64
2018-03-20T14:32:51.268Z,46.66
2018-03-20T14:35:16.978Z,46.71
2018-03-20T14:37:42.703Z,46.41
2018-03-20T14:40:08.421Z,46.52
2018-03-20T14:42:34.138Z,46.80
2018-03-20T14:44:59.876Z,46.54
2018-03-20T14:47:25.634Z,47.05
2018-03-20T14:49:51.345Z,46.93
2018-03-20T14:52:17.073Z,47.23
2018-03-20T14:54:42.798Z,46.62
2018-03-20T14:57:08.541Z,46.34
2018-03-20T14:59:34.254Z,46.20
2018-03-20T15:02:00.010Z,45.89
2018-03-20T15:04:25.726Z,45.95
2018-03-20T15:06:51.458Z,46.31
2018-03-20T15:09:17.184Z,46.12
2018-03-20T15:11:42.901Z,46.53
2018-03-20T15:14:08.641Z,46.29
2018-03-20T15:16:34.406Z,46.42
2018-03-20T15:19:00.153Z,46.28
2018-03-20T15:21:25.873Z,46.09
2018-03-20T15:23:51.660Z,45.59
2018-03-20T15:26:17.378Z,45.13
2018-03-20T15:28:43.159Z,45.87
2018-03-20T15:31:08.862Z,46.26
2018-03-20T15:33:34.591Z,45.71
2018-03-20T15:36:00.368Z,45.32
2018-03-20T15:38:26.106Z,44.57
2018-03-20T15:40:51.825Z,44.14
2018-03-20T15:43:17.569Z,44.28
2018-03-20T15:45:43.291Z,44.50
2018-03-20T15:48:09.030Z,44.42
2018-03-20T15:50:34.761Z,44.22
2018-03-20T15:53:00.499Z,43.29
2018-03-20T15:55:26.229Z,43.51
2018-03-20T15:57:51.957Z,43.41
2018-03-20T16:00:17.682Z,43.88
2018-03-20T16:02:43.409Z,43.99
2018-03-20T16:05:09.149Z,44.37
2018-03-20T16:07:34.874Z,44.82
2018-03-20T16:10:00.602Z,44.83
2018-03-20T16:12:26.317Z,44.70
2018-03-20T16:14:52.050Z,44.40
2018-03-20T16:17:17.787Z,44.02
2018-03-20T16:19:43.523Z,43.39
2018-03-20T16:22:09.267Z,43.40
2018-03-20T16:24:34.998Z,44.22
2018-03-20T16:27:00.727Z,44.66
2018-03-20T16:29:26.522Z,44.50
2018-03-20T16:31:52.292Z,44.73
2018-03-20T16:34:18.058Z,45.50
2018-03-20T16:36:43.794Z,45.99
2018-03-20T16:39:09.501Z,46.43
2018-03-20T16:41:35.234Z,46.96
2018-03-20T16:44:00.965Z,47.15
2018-03-20T16:46:26.741Z,46.95
2018-03-20T16:48:52.487Z,47.35
2018-03-20T16:51:18.214Z,46.88
2018-03-20T16:53:43.950Z,47.38
2018-03-20T16:56:09.693Z,47.34
2018-03-20T16:58:35.409Z,47.78
2018-03-20T17:01:01.134Z,47.79
2018-03-20T17:03:26.861Z,48.31
2018-03-20T17:05:52.595Z,48.68
2018-03-20T17:08:18.322Z,49.00
2018-03-20T17:10:44.065Z,49.28
2018-03-20T17:13:09.795Z,49.51
2018-03-20T17:15:35.521Z,49.47
2018-03-20T17:18:01.238Z,49.91
2018-03-20T17:20:26.965Z,49.24
2018-03-20T17:22:52.689Z,49.75
2018-03-20T17:25:18.426Z,50.60
2018-03-20T17:27:44.143Z,50.39
2018-03-20T17:30:09.875Z,51.14
2018-03-20T17:32:35.594Z,51.62
2018-03-20T17:35:01.301Z,51.72
2018-03-20T17:37:27.050Z,52.00
2018-03-20T17:39:52.822Z,51.70
2018-03-20T17:42:18.499Z,52.42
2018-03-20T17:44:44.221Z,52.86
2018-03-20T17:47:09.988Z,52.67
2018-03-20T17:49:35.737Z,52.49
2018-03-20T17:52:01.493Z,52.86
2018-03-20T17:54:27.214Z,52.92
2018-03-20T17:56:52.942Z,52.99
2018-03-20T17:59:18.694Z,53.01
2018-03-20T18:01:44.442Z,56.80
2018-03-20T18:04:10.178Z,52.99
2018-03-20T18:06:35.922Z,53.01
2018-03-20T18:09:01.754Z,52.84
2018-03-20T18:11:27.469Z,53.06
2018-03-20T18:13:53.216Z,53.46
2018-03-20T18:16:18.941Z,53.32
2018-03-20T18:18:44.669Z,54.36
2018-03-20T18:21:10.387Z,54.12
2018-03-20T18:23:36.121Z,53.87
2018-03-20T18:26:01.837Z,54.15
2018-03-20T18:28:27.585Z,54.70
2018-03-20T18:30:53.319Z,55.49
2018-03-20T18:33:19.045Z,55.88
2018-03-20T18:35:44.771Z,56.71
2018-03-20T18:38:10.502Z,57.47
2018-03-20T18:40:36.231Z,57.97
2018-03-20T18:43:02.006Z,58.42
2018-03-20T18:45:27.741Z,58.91
2018-03-20T18:47:53.463Z,59.12
2018-03-20T18:50:19.195Z,59.66
2018-03-20T18:52:44.918Z,60.65
2018-03-20T18:55:10.653Z,60.96
2018-03-20T18:57:36.389Z,61.24
2018-03-20T19:00:02.113Z,61.46
2018-03-20T19:02:27.818Z,61.54
2018-03-20T19:04:53.534Z,61.25
2018-03-20T19:07:19.259Z,61.02
2018-03-20T19:09:44.995Z,61.35
2018-03-20T19:12:10.714Z,61.55
2018-03-20T19:14:36.513Z,61.80
2018-03-20T19:17:02.209Z,62.77
2018-03-20T19:19:27.941Z,62.85
2018-03-20T19:21:53.668Z,62.68
2018-03-20T19:24:19.398Z,63.09
2018-03-20T19:26:45.102Z,62.69
2018-03-20T19:29:10.817Z,63.48
2018-03-20T19:31:36.546Z,64.36
2018-03-20T19:34:02.262Z,65.02
2018-03-20T19:36:27.981Z,64.22
2018-03-20T19:38:53.690Z,63.98
2018-03-20T19:41:19.433Z,63.89
2018-03-20T19:43:45.142Z,62.62
2018-03-20T19:46:10.868Z,63.69
2018-03-20T19:48:36.601Z,64.04
2018-03-20T19:51:02.360Z,64.05
2018-03-20T19:53:28.086Z,63.90
2018-03-20T19:55:53.821Z,64.47
2018-03-20T19:58:19.562Z,64.42
2018-03-20T20:00:45.289Z,64.80
2018-03-20T20:03:11.019Z,64.89
2018-03-20T20:05:36.757Z,64.71
2018-03-20T20:08:02.477Z,65.59
2018-03-20T20:10:28.238Z,66.10
2018-03-20T20:12:53.937Z,65.96
2018-03-20T20:15:19.656Z,65.55
2018-03-20T20:17:45.438Z,65.78
2018-03-20T20:20:11.206Z,66.52
2018-03-20T20:22:36.946Z,66.14
2018-03-20T20:25:02.686Z,66.59
2018-03-20T20:27:28.432Z,66.58
2018-03-20T20:29:54.162Z,66.83
2018-03-20T20:32:19.898Z,67.26
2018-03-20T20:34:45.621Z,67.53
2018-03-20T20:37:11.365Z,68.49
2018-03-20T20:39:37.098Z,68.58
2018-03-20T20:42:02.838Z,68.99
2018-03-20T20:44:28.558Z,69.47
2018-03-20T20:46:54.295Z,69.08
2018-03-20T20:49:20.018Z,69.69
2018-03-20T20:51:45.757Z,69.90
2018-03-20T20:54:11.467Z,68.67
2018-03-20T20:56:37.203Z,68.97
2018-03-20T20:59:02.938Z,69.04
2018-03-20T21:01:28.654Z,69.71
2018-03-20T21:03:54.369Z,69.28
2018-03-20T21:06:20.098Z,69.61
2018-03-20T21:08:45.814Z,69.72
2018-03-20T21:11:11.537Z,70.36
2018-03-20T21:13:37.249Z,70.11
2018-03-20T21:16:02.973Z,70.26
2018-03-20T21:18:28.695Z,71.22
2018-03-20T21:20:54.422Z,71.45
2018-03-20T21:23:20.142Z,71.90
2018-03-20T21:25:45.846Z,71.39
2018-03-20T21:28:11.652Z,70.15
2018-03-20T21:30:37.375Z,71.18
2018-03-20T21:33:03.098Z,71.63
2018-03-20T21:35:28.813Z,71.81
2018-03-20T21:37:54.537Z,72.60
2018-03-20T21:40:20.254Z,73.52
2018-03-20T21:42:45.978Z,73.40
2018-03-20T21:45:11.697Z,72.11
2018-03-20T21:47:37.440Z,72.30
2018-03-20T21:50:03.169Z,72.83
2018-03-20T21:52:28.896Z,73.33
2018-03-20T21:54:54.637Z,72.19
2018-03-20T21:57:20.374Z,73.24
2018-03-20T21:59:46.104Z,71.92
2018-03-20T22:02:11.834Z,71.37
2018-03-20T22:04:37.561Z,73.59
2018-03-20T22:07:03.301Z,73.91
2018-03-20T22:09:29.030Z,74.73
2018-03-20T22:11:54.757Z,74.79
2018-03-20T22:14:20.488Z,75.37
2018-03-20T22:16:46.220Z,75.52
2018-03-20T22:19:11.943Z,73.25
2018-03-20T22:21:37.670Z,73.62
2018-03-20T22:24:03.419Z,74.28
2018-03-20T22:26:29.145Z,74.86
2018-03-20T22:28:54.875Z,76.00
2018-03-20T22:31:20.594Z,76.14
2018-03-20T22:33:46.321Z,76.64
2018-03-20T22:36:12.038Z,76.78
2018-03-20T22:38:37.777Z,75.64
2018-03-20T22:41:03.522Z,74.77
2018-03-20T22:43:29.270Z,75.15
2018-03-20T22:45:55.006Z,73.85
2018-03-20T22:48:20.758Z,73.57
2018-03-20T22:50:46.481Z,74.35
2018-03-20T22:53:12.214Z,75.91
2018-03-20T22:55:37.945Z,76.28
2018-03-20T22:58:03.668Z,76.72
2018-03-20T23:00:31.287Z,77.17
2018-03-20T23:02:57.017Z,76.91
2018-03-20T23:05:22.741Z,75.32
2018-03-20T23:07:48.475Z,74.89
2018-03-20T23:10:14.218Z,74.33
2018-03-20T23:12:39.942Z,75.27
2018-03-20T23:15:05.677Z,75.77
2018-03-20T23:17:31.415Z,75.67
2018-03-20T23:19:57.150Z,77.17
2018-03-20T23:22:22.880Z,77.09
2018-03-20T23:24:48.629Z,76.57
2018-03-20T23:27:14.341Z,76.63
2018-03-20T23:29:40.080Z,76.72
2018-03-20T23:32:05.806Z,76.21
2018-03-20T23:34:31.560Z,75.44
2018-03-20T23:36:57.291Z,75.54
2018-03-20T23:39:23.025Z,75.98
2018-03-20T23:41:48.756Z,76.19
2018-03-20T23:44:14.481Z,77.24
2018-03-20T23:46:40.198Z,77.19
2018-03-20T23:49:12.288Z,77.54
2018-03-20T23:51:38.022Z,78.77
2018-03-20T23:54:03.855Z,77.71
2018-03-20T23:56:29.585Z,76.04
2018-03-20T23:58:55.307Z,76.75
